createdAt,value
2018-02-19T00:00:37.962Z,11.53
2018-02-19T00:03:03.862Z,12.90
2018-02-19T00:05:29.695Z,12.90
2018-02-19T00:07:55.630Z,12.93
2018-02-19T00:10:21.514Z,12.70
2018-02-19T00:12:47.360Z,13.17
2018-02-19T00:15:13.204Z,13.43
2018-02-19T00:17:39.164Z,12.13
2018-02-19T00:20:05.025Z,15.60
2018-02-19T00:22:30.869Z,14.70
2018-02-19T00:24:56.769Z,11.23
2018-02-19T00:27:22.609Z,17.07
2018-02-19T00:29:48.458Z,16.17
2018-02-19T00:32:14.358Z,14.57
2018-02-19T00:34:40.192Z,15.17
2018-02-19T00:37:06.033Z,14.47
2018-02-19T00:39:31.944Z,13.93
2018-02-19T00:41:57.785Z,11.43
2018-02-19T00:44:23.640Z,13.03
2018-02-19T00:46:49.537Z,16.60
2018-02-19T00:49:15.377Z,11.77
2018-02-19T00:51:41.214Z,15.00
2018-02-19T00:54:07.181Z,12.07
2018-02-19T00:56:33.081Z,12.50
2018-02-19T00:58:58.925Z,12.27
2018-02-19T01:01:24.825Z,12.50
2018-02-19T01:03:50.656Z,14.80
2018-02-19T01:06:16.489Z,12.47
2018-02-19T01:08:42.392Z,14.63
2018-02-19T01:11:08.242Z,12.80
2018-02-19T01:13:34.076Z,12.33
2018-02-19T01:15:59.955Z,10.30
2018-02-19T01:18:25.802Z,12.47
2018-02-19T01:20:51.632Z,13.40
2018-02-19T01:23:17.507Z,12.40
2018-02-19T01:25:43.361Z,14.40
2018-02-19T01:28:09.204Z,13.13
2018-02-19T01:30:35.961Z,14.90
2018-02-19T01:33:01.814Z,15.03
2018-02-19T01:35:27.662Z,13.37
2018-02-19T01:37:53.557Z,13.40
2018-02-19T01:40:19.409Z,11.37
2018-02-19T01:42:45.244Z,12.83
2018-02-19T01:45:11.145Z,13.57
2018-02-19T01:47:36.985Z,13.10
2018-02-19T01:50:15.134Z,12.87
2018-02-19T01:52:41.005Z,13.10
2018-02-19T01:55:06.841Z,12.23
2018-02-19T01:57:32.797Z,12.77
2018-02-19T01:59:58.648Z,11.47
2018-02-19T02:02:24.496Z,15.20
2018-02-19T02:04:50.368Z,11.07
2018-02-19T02:07:16.195Z,12.87
2018-02-19T02:09:42.061Z,12.40
2018-02-19T02:12:07.952Z,11.97
2018-02-19T02:14:33.802Z,12.53
2018-02-19T02:16:59.649Z,11.37
2018-02-19T02:19:25.536Z,10.97
2018-02-19T02:21:51.397Z,11.67
2018-02-19T02:24:17.238Z,13.17
2018-02-19T02:26:43.125Z,11.83
2018-02-19T02:29:08.981Z,10.10
2018-02-19T02:31:34.825Z,13.87
2018-02-19T02:34:00.832Z,13.87
2018-02-19T02:36:26.694Z,14.03
2018-02-19T02:38:52.538Z,11.00
2018-02-19T02:41:18.426Z,12.53
2018-02-19T02:43:44.277Z,12.67
2018-02-19T02:46:10.146Z,10.40
2018-02-19T02:48:36.042Z,11.50
2018-02-19T02:51:01.879Z,11.73
2018-02-19T02:53:27.738Z,11.90
2018-02-19T02:55:53.634Z,11.13
2018-02-19T02:58:19.535Z,10.03
2018-02-19T03:00:45.388Z,14.07
2018-02-19T03:03:11.260Z,12.10
2018-02-19T03:05:37.105Z,10.17
2018-02-19T03:08:02.958Z,12.87
2018-02-19T03:10:28.839Z,12.97
2018-02-19T03:12:54.681Z,12.13
2018-02-19T03:15:20.521Z,13.50
2018-02-19T03:17:46.424Z,13.00
2018-02-19T03:20:12.276Z,13.37
2018-02-19T03:22:38.126Z,11.23
2018-02-19T03:25:04.004Z,12.33
2018-02-19T03:27:29.857Z,13.03
2018-02-19T03:29:55.692Z,11.20
2018-02-19T03:32:21.580Z,11.70
2018-02-19T03:34:47.428Z,11.37
2018-02-19T03:37:13.268Z,12.87
2018-02-19T03:39:39.177Z,12.43
2018-02-19T03:42:05.012Z,12.73
2018-02-19T03:44:30.861Z,11.23
2018-02-19T03:46:56.808Z,14.60
2018-02-19T03:49:22.647Z,10.40
2018-02-19T03:51:48.482Z,13.27
2018-02-19T03:54:14.457Z,13.60
2018-02-19T03:56:40.317Z,14.07
2018-02-19T03:59:06.208Z,12.20
2018-02-19T04:01:32.110Z,15.43
2018-02-19T04:03:57.947Z,13.30
2018-02-19T04:06:23.787Z,15.63
2018-02-19T04:08:49.671Z,16.57
2018-02-19T04:11:15.516Z,13.77
2018-02-19T04:13:41.349Z,15.83
2018-02-19T04:16:07.402Z,16.23
2018-02-19T04:18:33.257Z,15.20
2018-02-19T04:20:59.110Z,15.93
2018-02-19T04:23:25.088Z,13.70
2018-02-19T04:25:50.938Z,17.40
2018-02-19T04:28:16.771Z,16.63
2018-02-19T04:30:42.640Z,15.10
2018-02-19T04:33:08.481Z,16.47
2018-02-19T04:35:34.333Z,16.67
2018-02-19T04:38:00.209Z,16.80
2018-02-19T04:40:26.169Z,17.60
2018-02-19T04:42:52.030Z,17.00
2018-02-19T04:45:19.832Z,17.57
2018-02-19T04:47:45.684Z,19.97
2018-02-19T04:50:11.546Z,18.23
2018-02-19T04:52:37.518Z,18.03
2018-02-19T04:55:03.380Z,17.63
2018-02-19T04:57:29.242Z,18.97
2018-02-19T04:59:55.185Z,17.40
2018-02-19T05:02:21.020Z,18.80
2018-02-19T05:04:46.866Z,18.17
2018-02-19T05:07:12.754Z,21.00
2018-02-19T05:09:38.609Z,19.90
2018-02-19T05:12:04.454Z,20.60
2018-02-19T05:14:30.336Z,18.87
2018-02-19T05:16:56.184Z,20.63
2018-02-19T05:19:22.091Z,24.17
2018-02-19T05:21:47.964Z,20.33
2018-02-19T05:24:13.800Z,18.30
2018-02-19T05:26:39.640Z,20.77
2018-02-19T05:29:05.567Z,20.97
2018-02-19T05:31:31.463Z,20.60
2018-02-19T05:33:57.310Z,18.60
2018-02-19T05:36:23.283Z,22.90
2018-02-19T05:38:49.121Z,23.17
2018-02-19T05:41:14.969Z,20.17
2018-02-19T05:43:40.857Z,20.90
2018-02-19T05:46:06.703Z,25.57
2018-02-19T05:48:32.536Z,21.20
2018-02-19T05:50:58.444Z,22.17
2018-02-19T05:53:24.282Z,25.77
2018-02-19T05:55:50.188Z,23.80
2018-02-19T06:01:09.968Z,23.30
2018-02-19T06:03:35.853Z,22.67
2018-02-19T06:06:01.790Z,22.97
2018-02-19T06:08:27.628Z,23.83
2018-02-19T06:10:53.521Z,26.57
2018-02-19T06:13:19.454Z,23.63
2018-02-19T06:15:45.298Z,26.60
2018-02-19T06:18:11.177Z,26.60
2018-02-19T06:20:37.020Z,25.27
2018-02-19T06:23:02.890Z,26.17
2018-02-19T06:25:28.969Z,24.80
2018-02-19T06:27:54.857Z,26.20
2018-02-19T06:30:20.705Z,24.87
2018-02-19T06:32:46.580Z,23.97
2018-02-19T06:35:12.424Z,25.30
2018-02-19T06:37:38.347Z,27.50
2018-02-19T06:40:04.237Z,22.30
2018-02-19T06:42:30.067Z,26.27
2018-02-19T06:44:55.909Z,25.47
2018-02-19T06:47:22.040Z,28.43
2018-02-19T06:49:47.974Z,26.80
2018-02-19T06:52:13.817Z,27.13
2018-02-19T06:54:39.707Z,25.00
2018-02-19T06:57:05.548Z,28.20
2018-02-19T06:59:31.384Z,27.97
2018-02-19T07:01:57.336Z,27.50
2018-02-19T07:04:23.185Z,27.30
2018-02-19T07:06:49.023Z,28.10
2018-02-19T07:09:15.232Z,32.70
2018-02-19T07:11:41.075Z,33.40
2018-02-19T07:14:06.989Z,29.20
2018-02-19T07:16:32.938Z,29.20
2018-02-19T07:18:58.767Z,32.00
2018-02-19T07:21:24.601Z,27.97
2018-02-19T07:23:50.498Z,26.30
2018-02-19T07:26:16.444Z,28.83
2018-02-19T07:28:42.276Z,27.63
2018-02-19T07:31:08.167Z,26.30
2018-02-19T07:33:34.014Z,25.70
2018-02-19T07:35:59.853Z,27.63
2018-02-19T07:38:26.635Z,25.37
2018-02-19T07:40:52.485Z,25.50
2018-02-19T07:43:18.322Z,26.73
2018-02-19T07:45:44.255Z,27.77
2018-02-19T07:48:10.093Z,25.03
2018-02-19T07:50:36.093Z,23.47
2018-02-19T07:53:01.964Z,26.20
2018-02-19T07:55:27.846Z,25.90
2018-02-19T07:57:53.708Z,26.07
2018-02-19T08:00:19.623Z,23.97
2018-02-19T08:02:45.569Z,22.83
2018-02-19T08:05:11.421Z,26.97
2018-02-19T08:07:37.437Z,29.33
2018-02-19T08:10:03.292Z,21.87
2018-02-19T08:12:29.154Z,25.47
2018-02-19T08:14:55.133Z,22.27
2018-02-19T08:17:20.976Z,24.43
2018-02-19T08:19:46.815Z,21.07
2018-02-19T08:22:12.776Z,26.20
2018-02-19T08:24:38.629Z,22.87
2018-02-19T08:27:04.585Z,22.70
2018-02-19T08:29:30.526Z,24.47
2018-02-19T08:31:56.426Z,25.60
2018-02-19T08:34:22.256Z,20.60
2018-02-19T08:36:48.136Z,23.27
2018-02-19T08:39:14.071Z,26.63
2018-02-19T08:41:39.926Z,22.73
2018-02-19T08:44:05.973Z,22.47
2018-02-19T08:46:31.888Z,26.03
2018-02-19T08:48:57.768Z,21.70
2018-02-19T08:51:23.733Z,21.83
2018-02-19T08:53:49.569Z,21.30
2018-02-19T08:56:15.915Z,21.77
2018-02-19T08:58:41.806Z,24.70
2018-02-19T09:01:07.648Z,21.77
2018-02-19T09:03:33.638Z,25.17
2018-02-19T09:05:59.529Z,21.37
2018-02-19T09:08:25.441Z,21.10
2018-02-19T09:10:51.282Z,25.47
2018-02-19T09:13:17.160Z,22.37
2018-02-19T09:15:43.088Z,22.80
2018-02-19T09:18:08.929Z,18.87
2018-02-19T09:20:35.105Z,20.37
2018-02-19T09:23:00.974Z,24.70
2018-02-19T09:25:26.863Z,22.03
2018-02-19T09:27:52.869Z,23.43
2018-02-19T09:30:18.704Z,18.73
2018-02-19T09:32:44.597Z,22.80
2018-02-19T09:35:10.494Z,22.07
2018-02-19T09:37:36.336Z,20.50
2018-02-19T09:40:02.278Z,19.97
2018-02-19T09:42:28.186Z,18.13
2018-02-19T09:44:54.076Z,18.23
2018-02-19T09:47:19.924Z,20.40
2018-02-19T09:49:45.837Z,19.97
2018-02-19T09:52:11.772Z,22.57
2018-02-19T09:54:37.739Z,20.37
2018-02-19T09:57:03.693Z,16.40
2018-02-19T09:59:29.534Z,18.33
2018-02-19T10:01:55.372Z,20.40
2018-02-19T10:04:21.399Z,20.67
2018-02-19T10:06:47.267Z,22.50
2018-02-19T10:09:13.157Z,18.07
2018-02-19T10:11:39.028Z,20.80
2018-02-19T10:14:04.889Z,21.00
2018-02-19T10:16:30.905Z,19.27
2018-02-19T10:18:56.813Z,17.27
2018-02-19T10:21:22.706Z,18.03
2018-02-19T10:23:48.536Z,19.37
2018-02-19T10:26:14.472Z,17.40
2018-02-19T10:28:40.412Z,18.83
2018-02-19T10:31:06.248Z,17.70
2018-02-19T10:33:32.197Z,18.90
2018-02-19T10:35:58.038Z,19.50
2018-02-19T10:38:23.868Z,18.33
2018-02-19T10:40:49.862Z,21.93
2018-02-19T10:43:15.712Z,17.57
2018-02-19T10:45:41.599Z,18.47
2018-02-19T10:48:07.665Z,16.47
2018-02-19T10:50:33.506Z,18.63
2018-02-19T10:52:59.423Z,18.17
2018-02-19T10:55:25.358Z,17.60
2018-02-19T10:57:51.243Z,16.73
2018-02-19T11:00:23.202Z,19.53
2018-02-19T11:02:49.098Z,18.83
2018-02-19T11:05:15.028Z,17.83
2018-02-19T11:07:40.856Z,18.87
2018-02-19T11:10:06.796Z,20.83
2018-02-19T11:12:32.641Z,14.63
2018-02-19T11:14:58.468Z,18.03
2018-02-19T11:17:24.432Z,18.93
2018-02-19T11:19:50.275Z,19.23
2018-02-19T11:22:16.160Z,19.37
2018-02-19T11:24:42.049Z,15.20
2018-02-19T11:27:07.898Z,16.73
2018-02-19T11:29:33.826Z,18.67
2018-02-19T11:31:59.788Z,19.90
2018-02-19T11:34:25.684Z,15.73
2018-02-19T11:36:51.524Z,18.03
2018-02-19T11:39:17.417Z,16.40
2018-02-19T11:41:43.336Z,17.13
2018-02-19T11:44:09.202Z,17.83
2018-02-19T11:46:35.152Z,16.10
2018-02-19T11:49:01.009Z,18.67
2018-02-19T11:51:26.849Z,17.57
2018-02-19T11:53:52.825Z,16.93
2018-02-19T11:56:18.752Z,17.27
2018-02-19T11:58:44.644Z,16.83
2018-02-19T12:01:10.524Z,15.77
2018-02-19T12:03:36.366Z,14.13
2018-02-19T12:06:02.442Z,16.40
2018-02-19T12:08:28.326Z,16.20
2018-02-19T12:10:54.221Z,18.70
2018-02-19T12:13:20.070Z,14.27
2018-02-19T12:15:45.968Z,13.73
2018-02-19T12:18:11.897Z,17.10
2018-02-19T12:20:37.829Z,13.67
2018-02-19T12:23:03.861Z,15.17
2018-02-19T12:25:29.730Z,15.33
2018-02-19T12:27:55.590Z,15.40
2018-02-19T12:30:21.592Z,15.43
2018-02-19T12:32:47.462Z,15.13
2018-02-19T12:35:13.358Z,18.27
2018-02-19T12:37:39.245Z,15.60
2018-02-19T12:40:05.105Z,14.80
2018-02-19T12:42:31.037Z,18.67
2018-02-19T12:44:56.928Z,13.80
2018-02-19T12:47:22.829Z,20.50
2018-02-19T12:49:48.778Z,14.93
2018-02-19T12:52:14.972Z,14.73
2018-02-19T12:54:40.907Z,16.23
2018-02-19T12:57:06.773Z,14.00
2018-02-19T12:59:32.712Z,13.37
2018-02-19T13:01:58.552Z,15.67
2018-02-19T13:04:24.402Z,14.67
2018-02-19T13:06:50.368Z,12.07
2018-02-19T13:09:16.217Z,12.60
2018-02-19T13:11:42.148Z,13.47
2018-02-19T13:14:08.032Z,11.97
2018-02-19T13:16:33.940Z,15.20
2018-02-19T13:18:59.890Z,12.07
2018-02-19T13:21:25.773Z,14.27
2018-02-19T13:23:51.674Z,11.97
2018-02-19T13:26:17.529Z,15.00
2018-02-19T13:28:43.412Z,15.97
2018-02-19T13:31:09.347Z,16.03
2018-02-19T13:33:35.213Z,13.97
2018-02-19T13:36:01.144Z,16.23
2018-02-19T13:38:26.981Z,12.33
2018-02-19T13:40:52.840Z,14.43
2018-02-19T13:43:19.674Z,13.03
2018-02-19T13:45:45.511Z,12.90
2018-02-19T13:48:11.421Z,15.53
2018-02-19T13:50:37.308Z,14.80
2018-02-19T13:53:03.159Z,12.97
2018-02-19T13:55:29.113Z,13.67
2018-02-19T13:57:54.992Z,13.57
2018-02-19T14:00:20.909Z,14.10
2018-02-19T14:02:46.772Z,14.40
2018-02-19T14:05:12.673Z,13.63
2018-02-19T14:07:38.605Z,13.87
2018-02-19T14:10:04.454Z,14.40
2018-02-19T14:12:30.585Z,17.07
2018-02-19T14:14:56.434Z,13.70
2018-02-19T14:17:22.289Z,14.30
2018-02-19T14:19:48.274Z,13.00
2018-02-19T14:22:14.128Z,14.40
2018-02-19T14:24:40.120Z,14.57
2018-02-19T14:27:06.000Z,13.70
2018-02-19T14:29:31.890Z,13.20
2018-02-19T14:31:57.837Z,13.53
2018-02-19T14:34:23.724Z,15.13
2018-02-19T14:36:49.626Z,19.10
2018-02-19T14:39:15.476Z,18.00
2018-02-19T14:41:41.374Z,17.10
2018-02-19T14:44:07.321Z,16.97
2018-02-19T14:46:33.169Z,16.20
2018-02-19T14:48:59.110Z,18.47
2018-02-19T14:51:25.013Z,15.63
2018-02-19T14:53:50.802Z,17.97
2018-02-19T14:56:16.776Z,15.80
2018-02-19T14:58:42.608Z,16.80
2018-02-19T15:01:08.496Z,15.93
2018-02-19T15:03:34.383Z,14.80
2018-02-19T15:06:00.229Z,16.73
2018-02-19T15:08:26.169Z,16.03
2018-02-19T15:10:52.056Z,17.77
2018-02-19T15:13:17.952Z,15.07
2018-02-19T15:15:43.813Z,16.33
2018-02-19T15:18:09.730Z,16.70
2018-02-19T15:20:35.673Z,16.43
2018-02-19T15:23:01.514Z,15.40
2018-02-19T15:25:27.465Z,15.73
2018-02-19T15:27:53.300Z,15.30
2018-02-19T15:30:19.229Z,17.97
2018-02-19T15:32:45.192Z,16.00
2018-02-19T15:35:11.034Z,15.73
2018-02-19T15:37:36.964Z,17.77
2018-02-19T15:40:02.852Z,13.73
2018-02-19T15:42:29.311Z,17.17
2018-02-19T15:44:55.305Z,17.30
2018-02-19T15:47:21.303Z,14.77
2018-02-19T15:49:47.197Z,15.57
2018-02-19T15:52:13.032Z,16.97
2018-02-19T15:54:38.952Z,18.77
2018-02-19T15:57:04.890Z,18.93
2018-02-19T15:59:30.734Z,15.63
2018-02-19T16:01:56.678Z,14.43
2018-02-19T16:04:23.019Z,17.20
2018-02-19T16:06:48.906Z,17.07
2018-02-19T16:09:14.876Z,16.63
2018-02-19T16:11:40.729Z,16.70
2018-02-19T16:14:06.620Z,18.50
2018-02-19T16:16:32.510Z,18.87
2018-02-19T16:18:58.453Z,21.00
2018-02-19T16:21:24.383Z,19.67
2018-02-19T16:23:50.424Z,18.53
2018-02-19T16:26:16.791Z,19.50
2018-02-19T16:28:42.730Z,15.50
2018-02-19T16:31:08.645Z,13.97
2018-02-19T16:33:34.580Z,15.93
2018-02-19T16:36:00.420Z,15.13
2018-02-19T16:38:26.660Z,18.53
2018-02-19T16:40:52.543Z,21.37
2018-02-19T16:43:18.389Z,17.57
2018-02-19T16:45:44.394Z,17.10
2018-02-19T16:48:10.820Z,19.13
2018-02-19T16:50:36.772Z,19.73
2018-02-19T16:53:02.717Z,20.40
2018-02-19T16:55:28.542Z,20.00
2018-02-19T16:57:54.518Z,19.20
2018-02-19T17:00:20.409Z,23.50
2018-02-19T17:02:46.320Z,20.30
2018-02-19T17:05:12.175Z,22.93
2018-02-19T17:07:38.368Z,18.50
2018-02-19T17:10:04.409Z,20.37
2018-02-19T17:12:30.266Z,24.00
2018-02-19T17:14:56.195Z,26.63
2018-02-19T17:17:22.028Z,23.60
2018-02-19T17:19:47.875Z,22.53
2018-02-19T17:22:14.633Z,25.43
2018-02-19T17:24:40.502Z,22.90
2018-02-19T17:27:06.387Z,26.03
2018-02-19T17:29:32.269Z,24.90
2018-02-19T17:31:58.116Z,25.73
2018-02-19T17:34:24.077Z,22.83
2018-02-19T17:36:49.976Z,26.40
2018-02-19T17:39:15.886Z,28.33
2018-02-19T17:41:41.724Z,24.07
2018-02-19T17:44:07.606Z,28.03
2018-02-19T17:46:33.528Z,28.73
2018-02-19T17:48:59.360Z,34.40
2018-02-19T17:51:25.306Z,28.77
2018-02-19T17:53:51.167Z,27.63
2018-02-19T17:56:17.022Z,28.77
2018-02-19T17:58:43.221Z,28.37
2018-02-19T18:01:09.072Z,23.50
2018-02-19T18:03:34.966Z,26.97
2018-02-19T18:06:00.874Z,30.23
2018-02-19T18:08:26.847Z,30.87
2018-02-19T18:10:52.790Z,31.13
2018-02-19T18:13:18.676Z,26.03
2018-02-19T18:15:44.569Z,29.57
2018-02-19T18:18:10.421Z,24.23
2018-02-19T18:20:36.318Z,29.03
2018-02-19T18:23:02.762Z,31.50
2018-02-19T18:25:28.623Z,29.57
2018-02-19T18:27:54.574Z,31.17
2018-02-19T18:30:20.413Z,24.67
2018-02-19T18:32:46.269Z,24.07
2018-02-19T18:35:12.612Z,27.93
2018-02-19T18:37:38.517Z,30.83
2018-02-19T18:40:04.434Z,29.03
2018-02-19T18:42:30.324Z,29.53
2018-02-19T18:44:56.179Z,28.97
2018-02-19T18:47:22.121Z,25.17
2018-02-19T18:49:48.012Z,32.77
2018-02-19T18:52:13.917Z,38.70
2018-02-19T18:54:39.773Z,30.97
2018-02-19T18:57:05.651Z,31.07
2018-02-19T18:59:31.584Z,29.77
2018-02-19T19:01:57.417Z,33.67
2018-02-19T19:04:23.391Z,36.20
2018-02-19T19:06:49.230Z,32.73
2018-02-19T19:09:27.419Z,31.23
2018-02-19T19:11:53.362Z,26.83
2018-02-19T19:14:19.200Z,35.00
2018-02-19T19:16:45.452Z,30.50
2018-02-19T19:19:11.313Z,28.60
2018-02-19T19:21:37.158Z,27.60
2018-02-19T19:24:03.178Z,30.47
2018-02-19T19:26:29.051Z,27.77
2018-02-19T19:28:54.954Z,26.30
2018-02-19T19:31:20.851Z,26.30
2018-02-19T19:33:46.697Z,26.07
2018-02-19T19:36:12.649Z,25.77
2018-02-19T19:38:38.537Z,27.13
2018-02-19T19:41:04.477Z,26.50
2018-02-19T19:43:30.365Z,30.73
2018-02-19T19:45:56.303Z,28.47
2018-02-19T19:48:22.229Z,32.03
2018-02-19T19:50:48.118Z,30.87
2018-02-19T19:53:14.072Z,31.33
2018-02-19T19:55:39.945Z,31.03
2018-02-19T19:58:05.795Z,29.87
2018-02-19T20:00:31.780Z,22.70
2018-02-19T20:02:57.640Z,28.57
2018-02-19T20:05:23.557Z,26.80
2018-02-19T20:07:49.447Z,29.30
2018-02-19T20:10:15.374Z,31.27
2018-02-19T20:12:41.369Z,34.27
2018-02-19T20:15:07.285Z,28.50
2018-02-19T20:17:33.182Z,34.73
2018-02-19T20:19:59.092Z,29.17
2018-02-19T20:22:24.976Z,31.13
2018-02-19T20:24:50.908Z,31.17
2018-02-19T20:27:16.771Z,32.60
2018-02-19T20:29:42.716Z,30.63
2018-02-19T20:32:08.562Z,28.03
2018-02-19T20:34:34.422Z,28.17
2018-02-19T20:37:00.430Z,31.43
2018-02-19T20:39:26.289Z,29.17
2018-02-19T20:41:52.205Z,34.43
2018-02-19T20:44:18.380Z,31.73
2018-02-19T20:46:44.244Z,28.03
2018-02-19T20:49:10.178Z,26.40
2018-02-19T20:51:36.075Z,28.87
2018-02-19T20:54:01.979Z,29.63
2018-02-19T20:56:27.830Z,28.87
2018-02-19T20:58:53.733Z,29.00
2018-02-19T21:01:19.686Z,25.77
2018-02-19T21:03:45.532Z,26.63
2018-02-19T21:06:11.456Z,27.10
2018-02-19T21:08:37.313Z,26.77
2018-02-19T21:11:03.204Z,28.27
2018-02-19T21:13:29.153Z,29.13
2018-02-19T21:15:54.984Z,27.00
2018-02-19T21:18:20.877Z,23.37
2018-02-19T21:20:47.357Z,26.53
2018-02-19T21:23:13.208Z,27.83
2018-02-19T21:25:39.153Z,30.97
2018-02-19T21:28:05.063Z,31.80
2018-02-19T21:30:31.753Z,30.47
2018-02-19T21:32:59.870Z,28.00
2018-02-19T21:35:25.757Z,29.03
2018-02-19T21:37:51.701Z,28.93
2018-02-19T21:40:17.547Z,28.80
2018-02-19T21:42:43.512Z,32.53
2018-02-19T21:45:09.348Z,27.57
2018-02-19T21:47:35.201Z,31.83
2018-02-19T21:50:01.481Z,30.73
2018-02-19T21:52:27.336Z,30.20
2018-02-19T21:54:53.236Z,32.27
2018-02-19T21:57:19.484Z,28.07
2018-02-19T21:59:45.336Z,27.87
2018-02-19T22:02:11.263Z,29.13
2018-02-19T22:04:37.136Z,32.10
2018-02-19T22:07:03.035Z,34.33
2018-02-19T22:09:28.879Z,27.50
2018-02-19T22:11:54.778Z,31.33
2018-02-19T22:14:20.716Z,30.73
2018-02-19T22:16:46.556Z,33.03
2018-02-19T22:19:12.783Z,32.13
2018-02-19T22:21:38.628Z,28.37
2018-02-19T22:24:04.472Z,30.80
2018-02-19T22:26:30.466Z,31.47
2018-02-19T22:28:56.321Z,32.10
2018-02-19T22:31:22.211Z,30.97
2018-02-19T22:33:48.376Z,29.50
2018-02-19T22:36:14.230Z,31.90
2018-02-19T22:38:40.176Z,27.00
2018-02-19T22:41:06.076Z,28.80
2018-02-19T22:43:31.977Z,28.90
2018-02-19T22:45:57.874Z,27.57
2018-02-19T22:48:23.748Z,31.07
2018-02-19T22:50:49.703Z,26.93
2018-02-19T22:53:15.556Z,34.40
2018-02-19T22:55:41.809Z,27.37
2018-02-19T22:58:07.704Z,26.03
2018-02-19T23:00:33.694Z,29.43
2018-02-19T23:02:59.700Z,26.67
2018-02-19T23:05:25.549Z,27.70
2018-02-19T23:07:51.980Z,24.90
2018-02-19T23:10:17.929Z,28.67
2018-02-19T23:12:44.074Z,27.43
2018-02-19T23:15:10.494Z,32.50
2018-02-19T23:17:36.779Z,29.07
2018-02-19T23:20:02.970Z,29.47
2018-02-19T23:22:29.338Z,32.77
2018-02-19T23:24:55.628Z,28.37
2018-02-19T23:27:21.629Z,29.57
2018-02-19T23:29:47.473Z,29.10
2018-02-19T23:32:13.613Z,27.07
2018-02-19T23:34:39.460Z,29.73
2018-02-19T23:37:05.300Z,27.07
2018-02-19T23:39:31.289Z,27.20
2018-02-19T23:41:57.145Z,27.37
2018-02-19T23:44:22.994Z,33.43
2018-02-19T23:46:48.878Z,33.47
2018-02-19T23:49:14.728Z,29.17
2018-02-19T23:51:40.661Z,24.93
2018-02-19T23:54:06.577Z,33.73
2018-02-19T23:56:32.430Z,29.70
2018-02-19T23:58:58.280Z,28.60
